Time;durP1;ratioP1;P1;durP2;ratioP2;P2;SDS_P1;SDS_P2;PMS_P1;PMS_P2;Temp;Humidity;BMP_temperature;BMP_pressure;BME280_temperature;BME280_humidity;BME280_pressure;Samples;Min_cycle;Max_cycle;Signal;HPM_P1;HPM_P2
2022/06/25 00:01:50;;;;;;;8.32;7.25;;;22.10;99.90;;;;;;5043544;28;20131;-55
2022/06/25 00:07:01;;;;;;;9.60;6.15;;;22.10;99.90;;;;;;5080651;28;20082;-51
2022/06/25 00:09:27;;;;;;;9.88;6.90;;;22.00;99.90;;;;;;5102147;28;20035;-51
2022/06/25 00:14:38;;;;;;;7.57;6.40;;;;;;;;;;5103607;28;20555;-51
2022/06/25 00:17:04;;;;;;;9.07;6.70;;;;;;;;;;5102845;28;20031;-51
2022/06/25 00:19:30;;;;;;;8.65;6.60;;;;;;;;;;5102982;28;20040;-52
2022/06/25 00:21:56;;;;;;;9.00;7.45;;;;;;;;;;5073559;28;20032;-51
2022/06/25 00:24:23;;;;;;;12.52;8.20;;;;;;;;;;5102612;28;20023;-53
2022/06/25 00:26:49;;;;;;;11.45;8.45;;;;;;;;;;5102741;28;20455;-51
2022/06/25 00:29:15;;;;;;;11.18;8.68;;;22.10;99.90;;;;;;5103772;28;20067;-53
2022/06/25 00:31:41;;;;;;;11.68;7.82;;;22.30;99.90;;;;;;5066232;28;20036;-53
2022/06/25 00:34:07;;;;;;;11.68;8.20;;;22.50;99.90;;;;;;5104748;28;20383;-52
2022/06/25 00:36:33;;;;;;;12.85;8.45;;;22.40;99.90;;;;;;5063209;28;20036;-51
2022/06/25 00:38:59;;;;;;;10.57;8.85;;;22.50;99.90;;;;;;5107014;28;20078;-51
2022/06/25 00:41:25;;;;;;;9.13;8.23;;;;;;;;;;5097146;28;20039;-51
2022/06/25 00:43:51;;;;;;;11.35;8.77;;;22.50;99.90;;;;;;5102008;28;20081;-52
2022/06/25 00:46:17;;;;;;;11.77;8.07;;;22.40;99.90;;;;;;5102400;28;20031;-51
2022/06/25 00:48:43;;;;;;;8.57;7.68;;;22.40;99.90;;;;;;5100016;28;20027;-53
2022/06/25 00:51:14;;;;;;;14.93;8.75;;;22.50;99.90;;;;;;5102656;28;20028;-51
2022/06/25 00:53:43;;;;;;;12.15;8.20;;;22.40;99.90;;;;;;5102234;28;20050;-52
2022/06/25 00:56:10;;;;;;;9.45;8.35;;;22.10;99.90;;;;;;5101013;28;20032;-53
2022/06/25 00:58:40;;;;;;;10.15;8.90;;;21.90;99.90;;;;;;5102480;28;20118;-52
2022/06/25 01:01:09;;;;;;;11.48;8.57;;;22.00;99.90;;;;;;5102411;28;20032;-50
2022/06/25 01:03:36;;;;;;;11.13;9.10;;;21.80;99.90;;;;;;5100642;28;20095;-51
2022/06/25 01:06:02;;;;;;;10.65;9.13;;;22.00;99.90;;;;;;5103054;28;20020;-53
2022/06/25 01:08:28;;;;;;;12.25;8.80;;;22.10;99.90;;;;;;5104180;28;20111;-50
2022/06/25 01:10:54;;;;;;;11.35;7.90;;;21.90;99.90;;;;;;5051794;28;20127;-53
2022/06/25 01:13:21;;;;;;;11.02;8.57;;;21.60;99.90;;;;;;5015461;28;20044;-52
2022/06/25 01:15:48;;;;;;;9.90;8.00;;;21.70;99.90;;;;;;5113178;28;20053;-48
2022/06/25 01:18:14;;;;;;;11.20;8.13;;;21.50;99.90;;;;;;5104368;28;20055;-51
2022/06/25 01:20:42;;;;;;;11.88;8.30;;;21.60;99.90;;;;;;5104363;28;20510;-52
2022/06/25 01:23:11;;;;;;;9.65;8.23;;;21.50;99.90;;;;;;5093656;28;20048;-53
2022/06/25 01:25:38;;;;;;;11.38;8.32;;;21.40;99.90;;;;;;5069343;28;20043;-49
2022/06/25 01:28:05;;;;;;;11.48;8.63;;;21.20;99.90;;;;;;5107191;28;20135;-53
2022/06/25 01:30:32;;;;;;;9.82;8.38;;;;;;;;;;5043808;28;20114;-52
2022/06/25 01:32:57;;;;;;;11.60;8.48;;;21.10;99.90;;;;;;5063667;28;20036;-52
2022/06/25 01:35:23;;;;;;;11.23;8.75;;;21.20;99.90;;;;;;5059156;28;20063;-50
2022/06/25 01:37:49;;;;;;;15.80;8.65;;;21.40;99.90;;;;;;5056967;28;20461;-48
2022/06/25 01:40:15;;;;;;;14.32;7.75;;;21.60;99.90;;;;;;5060950;28;20455;-51
2022/06/25 01:43:00;;;;;;;9.68;7.68;;;21.60;99.90;;;;;;5060072;28;20040;-52
2022/06/25 01:45:28;;;;;;;10.35;8.75;;;21.80;99.90;;;;;;5062515;28;20044;-47
2022/06/25 01:47:54;;;;;;;10.60;8.20;;;21.80;99.90;;;;;;5063864;28;20041;-51
2022/06/25 01:50:20;;;;;;;11.45;8.13;;;21.90;99.90;;;;;;5064573;28;20029;-49
2022/06/25 01:52:46;;;;;;;10.82;8.27;;;21.90;99.90;;;;;;5049929;28;20068;-51
2022/06/25 01:55:13;;;;;;;10.10;8.45;;;22.00;99.90;;;;;;5068517;28;20088;-51
2022/06/25 01:57:39;;;;;;;12.52;8.15;;;21.90;99.90;;;;;;5062792;28;20115;-51
2022/06/25 02:00:07;;;;;;;14.25;8.45;;;22.10;99.90;;;;;;5064341;28;20044;-51
2022/06/25 02:02:34;;;;;;;11.63;10.02;;;21.80;99.90;;;;;;5024708;28;20123;-48
2022/06/25 02:05:01;;;;;;;14.60;10.88;;;21.40;99.90;;;;;;5006228;28;20489;-50
2022/06/25 02:07:27;;;;;;;12.63;10.73;;;21.40;99.90;;;;;;5044983;28;20097;-50
2022/06/25 02:09:53;;;;;;;11.70;10.60;;;;;;;;;;5085164;28;20028;-48
2022/06/25 02:12:19;;;;;;;15.70;10.10;;;;;;;;;;5109285;28;20080;-49
2022/06/25 02:14:45;;;;;;;17.85;9.88;;;21.10;99.90;;;;;;5105620;28;20085;-51
2022/06/25 02:17:11;;;;;;;10.60;9.52;;;21.00;99.90;;;;;;5083551;28;20040;-50
2022/06/25 02:19:36;;;;;;;12.90;9.35;;;21.10;99.90;;;;;;5096871;28;20401;-52
2022/06/25 02:22:02;;;;;;;12.80;9.55;;;21.20;99.90;;;;;;5109402;28;20039;-50
2022/06/25 02:24:28;;;;;;;10.55;9.45;;;21.30;99.90;;;;;;5104723;28;20028;-49
2022/06/25 02:26:54;;;;;;;11.90;10.05;;;21.40;99.90;;;;;;5101927;28;20036;-52
2022/06/25 02:29:22;;;;;;;10.90;9.20;;;21.20;99.90;;;;;;5085368;28;20047;-49
2022/06/25 02:31:48;;;;;;;11.52;9.25;;;20.80;99.90;;;;;;5103321;28;20028;-49
2022/06/25 02:34:14;;;;;;;15.85;9.98;;;;;;;;;;5078993;28;20171;-48
2022/06/25 02:36:40;;;;;;;12.52;9.23;;;20.60;99.90;;;;;;5104800;28;20116;-50
2022/06/25 02:39:05;;;;;;;14.20;10.60;;;20.60;99.90;;;;;;5105815;28;20474;-50
2022/06/25 02:41:31;;;;;;;14.32;9.70;;;20.60;99.90;;;;;;5076946;28;20032;-49
2022/06/25 02:43:57;;;;;;;13.55;10.20;;;20.70;99.90;;;;;;5106549;28;20111;-48
2022/06/25 02:46:23;;;;;;;12.48;9.57;;;21.00;99.90;;;;;;5107822;28;20052;-51
2022/06/25 02:48:48;;;;;;;12.35;10.07;;;21.10;99.90;;;;;;5068425;28;20035;-49
2022/06/25 02:51:14;;;;;;;18.08;10.75;;;21.30;99.90;;;;;;5052283;28;20036;-48
2022/06/25 02:53:40;;;;;;;12.02;9.57;;;21.40;99.90;;;;;;5096138;28;20039;-51
2022/06/25 02:58:54;;;;;;;12.07;9.23;;;21.60;99.90;;;;;;5102582;28;20058;-49
2022/06/25 03:01:21;;;;;;;12.45;9.45;;;21.60;99.90;;;;;;5104558;28;20076;-49
2022/06/25 03:03:46;;;;;;;17.80;9.20;;;21.70;99.90;;;;;;5085412;28;20036;-52
2022/06/25 03:06:12;;;;;;;12.57;9.10;;;21.70;99.90;;;;;;5105595;28;20042;-51
2022/06/25 03:08:38;;;;;;;16.65;9.15;;;21.80;99.90;;;;;;5106369;28;20023;-50
2022/06/25 03:11:04;;;;;;;18.58;8.98;;;21.80;99.90;;;;;;5097059;28;20028;-50
2022/06/25 03:13:33;;;;;;;16.60;9.57;;;21.70;99.90;;;;;;5106065;28;20031;-50
2022/06/25 03:16:00;;;;;;;12.00;8.70;;;21.80;99.90;;;;;;5103766;28;20036;-50
2022/06/25 03:18:26;;;;;;;8.85;7.95;;;21.80;99.90;;;;;;5105957;28;20061;-51
2022/06/25 03:20:52;;;;;;;12.98;8.40;;;21.50;99.90;;;;;;5102861;28;20040;-50
2022/06/25 03:23:22;;;;;;;11.20;8.27;;;21.40;99.90;;;;;;5112852;28;20035;-48
2022/06/25 03:25:49;;;;;;;13.98;8.55;;;21.20;99.90;;;;;;5103422;28;20032;-48
2022/06/25 03:28:15;;;;;;;14.88;8.52;;;21.00;99.90;;;;;;5105587;28;20447;-50
2022/06/25 03:30:41;;;;;;;12.38;8.63;;;21.10;99.90;;;;;;5105731;28;20101;-47
2022/06/25 03:33:07;;;;;;;13.68;8.02;;;21.10;99.90;;;;;;5042365;28;20199;-51
2022/06/25 03:35:33;;;;;;;15.93;7.97;;;21.30;99.90;;;;;;5105459;28;20115;-50
2022/06/25 03:37:59;;;;;;;12.30;7.97;;;21.20;99.90;;;;;;5083570;28;20213;-52
2022/06/25 03:40:25;;;;;;;16.23;8.57;;;21.30;99.90;;;;;;5066214;28;20134;-50
2022/06/25 03:42:50;;;;;;;16.65;9.68;;;21.40;99.90;;;;;;5061856;28;20045;-48
2022/06/25 03:45:16;;;;;;;15.65;9.55;;;21.50;99.90;;;;;;5066129;28;20045;-50
2022/06/25 03:47:50;;;;;;;17.13;9.77;;;21.60;99.90;;;;;;5048327;28;20068;-52
2022/06/25 03:50:24;;;;;;;17.13;9.13;;;21.60;99.90;;;;;;5070320;28;20541;-52
2022/06/25 03:52:51;;;;;;;13.55;8.95;;;21.60;99.90;;;;;;5037363;28;20078;-50
2022/06/25 03:55:16;;;;;;;13.32;8.52;;;21.70;99.90;;;;;;5070671;28;20045;-50
2022/06/25 03:57:42;;;;;;;16.02;8.82;;;21.80;99.90;;;;;;5038178;28;20032;-50
2022/06/25 04:00:09;;;;;;;15.02;8.38;;;21.80;99.90;;;;;;5070532;28;20495;-51
2022/06/25 04:02:36;;;;;;;17.00;9.55;;;21.60;99.90;;;;;;5070626;28;20036;-52
2022/06/25 04:05:02;;;;;;;14.60;9.68;;;21.40;99.90;;;;;;5069925;28;20033;-51
2022/06/25 04:07:28;;;;;;;12.55;9.50;;;21.10;99.90;;;;;;5070505;28;20040;-53
2022/06/25 04:09:54;;;;;;;14.90;8.55;;;20.90;99.90;;;;;;5070782;28;20036;-50
2022/06/25 04:12:20;;;;;;;17.60;9.32;;;21.00;99.90;;;;;;5071285;28;20194;-51
2022/06/25 04:14:46;;;;;;;15.73;10.13;;;21.20;99.90;;;;;;5070620;28;20123;-51
2022/06/25 04:17:12;;;;;;;13.18;10.40;;;21.30;99.90;;;;;;5071119;28;20506;-49
2022/06/25 04:19:41;;;;;;;18.17;9.93;;;21.50;99.90;;;;;;5080481;28;20054;-50
2022/06/25 04:22:09;;;;;;;13.95;9.75;;;21.60;99.90;;;;;;5100698;28;20039;-48
2022/06/25 04:24:36;;;;;;;12.63;9.18;;;21.80;99.90;;;;;;5107439;28;20045;-50
2022/06/25 04:27:02;;;;;;;9.98;8.65;;;22.00;99.90;;;;;;5098507;28;20035;-50
2022/06/25 04:29:29;;;;;;;13.32;8.73;;;22.20;99.90;;;;;;5100687;28;20047;-52
2022/06/25 04:31:55;;;;;;;16.42;8.90;;;22.30;99.90;;;;;;5104670;28;20024;-50
2022/06/25 04:34:20;;;;;;;12.75;9.00;;;21.90;99.90;;;;;;5064801;28;20450;-49
2022/06/25 04:36:46;;;;;;;14.20;9.82;;;21.90;99.90;;;;;;5107351;28;20027;-52
2022/06/25 04:39:12;;;;;;;13.25;10.85;;;21.90;99.90;;;;;;5095565;28;20032;-49
2022/06/25 04:41:38;;;;;;;14.48;9.70;;;22.00;99.90;;;;;;5046661;28;20087;-51
2022/06/25 04:44:03;;;;;;;12.15;9.73;;;22.10;99.90;;;;;;5107484;28;20077;-51
2022/06/25 04:46:30;;;;;;;14.82;10.13;;;22.00;99.90;;;;;;5101277;28;20063;-48
2022/06/25 04:48:59;;;;;;;10.35;9.35;;;22.10;99.90;;;;;;5097335;28;20024;-50
2022/06/25 04:51:25;;;;;;;12.52;9.85;;;22.10;99.90;;;;;;5103865;28;20088;-50
2022/06/25 04:53:55;;;;;;;15.10;10.30;;;21.80;99.90;;;;;;5102826;28;20398;-51
2022/06/25 04:56:25;;;;;;;11.00;9.48;;;21.70;99.90;;;;;;5102503;28;20054;-50
2022/06/25 04:58:51;;;;;;;12.35;8.90;;;21.70;99.90;;;;;;5102369;28;20426;-53
2022/06/25 05:01:17;;;;;;;10.80;8.05;;;21.80;99.90;;;;;;5102519;28;20032;-50
2022/06/25 05:03:43;;;;;;;10.82;9.45;;;22.20;99.90;;;;;;5103336;28;20028;-51
2022/06/25 05:06:09;;;;;;;15.68;9.10;;;22.20;99.90;;;;;;5106828;28;20501;-50
2022/06/25 05:08:35;;;;;;;12.35;8.50;;;22.30;99.90;;;;;;5103693;28;20028;-50
2022/06/25 05:11:02;;;;;;;11.80;7.88;;;22.40;99.90;;;;;;5095430;28;20024;-49
2022/06/25 05:13:27;;;;;;;13.38;8.82;;;22.60;99.90;;;;;;5102083;28;20031;-51
2022/06/25 05:15:53;;;;;;;10.57;8.02;;;23.00;99.90;;;;;;5104110;28;20103;-52
2022/06/25 05:18:19;;;;;;;13.20;9.95;;;23.30;99.90;;;;;;5074387;28;20035;-52
2022/06/25 05:20:45;;;;;;;17.02;13.63;;;23.60;99.90;;;;;;5112122;28;20462;-53
2022/06/25 05:23:12;;;;;;;18.90;16.95;;;24.00;99.90;;;;;;5108827;28;20034;-52
2022/06/25 05:25:39;;;;;;;13.13;9.73;;;24.10;99.90;;;;;;5107703;28;20031;-48
2022/06/25 05:28:05;;;;;;;17.83;8.48;;;24.30;99.90;;;;;;5105992;28;20097;-49
2022/06/25 05:30:32;;;;;;;10.77;7.05;;;;;;;;;;5079706;28;20459;-50
2022/06/25 05:32:58;;;;;;;10.90;7.25;;;;;;;;;;5108110;28;20024;-51
2022/06/25 05:35:24;;;;;;;10.20;6.95;;;25.10;99.90;;;;;;5106191;28;20032;-52
2022/06/25 05:37:50;;;;;;;13.45;7.55;;;;;;;;;;5105790;28;20043;-51
2022/06/25 05:40:16;;;;;;;10.77;6.97;;;25.40;99.90;;;;;;5105707;28;20096;-51
2022/06/25 05:42:43;;;;;;;13.65;8.20;;;;;;;;;;5089714;28;20039;-53
2022/06/25 05:45:09;;;;;;;12.07;8.40;;;25.20;99.90;;;;;;5104145;28;20054;-54
2022/06/25 05:47:35;;;;;;;13.05;8.85;;;25.30;99.90;;;;;;5104232;28;20474;-51
2022/06/25 05:50:01;;;;;;;13.98;8.68;;;25.40;99.90;;;;;;5086129;28;20048;-50
2022/06/25 05:52:27;;;;;;;13.75;8.30;;;;;;;;;;5104711;28;20035;-53
2022/06/25 05:54:53;;;;;;;13.85;9.10;;;25.60;99.90;;;;;;5105917;28;20043;-50
2022/06/25 05:57:19;;;;;;;12.45;9.30;;;25.80;99.90;;;;;;5072425;28;20028;-51
2022/06/25 05:59:45;;;;;;;13.35;8.75;;;25.80;99.90;;;;;;5106993;28;20068;-52
2022/06/25 06:02:12;;;;;;;12.20;8.73;;;;;;;;;;5079666;28;20036;-51
2022/06/25 06:04:37;;;;;;;12.05;7.85;;;26.10;99.90;;;;;;5107195;28;20042;-52
2022/06/25 06:07:04;;;;;;;9.48;7.50;;;26.20;99.90;;;;;;5107350;28;20114;-50
2022/06/25 06:09:31;;;;;;;11.85;8.18;;;26.40;99.90;;;;;;5105590;28;20028;-53
2022/06/25 06:11:57;;;;;;;11.90;7.13;;;26.50;99.90;;;;;;5106373;28;20107;-50
2022/06/25 06:14:24;;;;;;;12.55;6.90;;;26.70;99.90;;;;;;5088261;28;20147;-49
2022/06/25 06:16:50;;;;;;;11.90;7.20;;;26.60;99.90;;;;;;5098279;28;20023;-51
2022/06/25 06:19:16;;;;;;;12.25;7.50;;;;;;;;;;5106925;28;20039;-53
2022/06/25 06:21:42;;;;;;;11.93;7.32;;;;;;;;;;5105032;28;20027;-52
2022/06/25 06:24:08;;;;;;;8.07;6.78;;;26.80;99.90;;;;;;5106387;28;20036;-51
2022/06/25 06:26:35;;;;;;;10.57;6.95;;;26.80;99.90;;;;;;5067086;28;20040;-52
2022/06/25 06:29:00;;;;;;;14.52;7.65;;;26.70;99.90;;;;;;5107076;28;20047;-52
2022/06/25 06:31:26;;;;;;;12.52;7.50;;;27.00;99.90;;;;;;5107929;28;20470;-48
2022/06/25 06:33:52;;;;;;;15.18;7.38;;;;;;;;;;5107384;28;20027;-53
2022/06/25 06:36:18;;;;;;;15.32;8.05;;;27.10;99.90;;;;;;5106680;28;20157;-50
2022/06/25 06:38:44;;;;;;;12.07;7.35;;;27.00;99.90;;;;;;5101438;28;20066;-53
2022/06/25 06:41:10;;;;;;;11.43;7.60;;;27.10;99.90;;;;;;5043525;28;20127;-52
2022/06/25 06:43:36;;;;;;;10.10;7.35;;;;;;;;;;5109089;28;20044;-49
2022/06/25 06:46:03;;;;;;;11.40;7.25;;;;;;;;;;5101745;28;20024;-48
2022/06/25 06:48:29;;;;;;;18.10;8.25;;;;;;;;;;5100644;28;20020;-51
2022/06/25 06:50:55;;;;;;;11.65;7.80;;;27.40;99.90;;;;;;5070408;28;20040;-47
2022/06/25 06:53:21;;;;;;;9.68;7.35;;;27.50;99.90;;;;;;5087815;28;20043;-53
2022/06/25 06:55:47;;;;;;;12.43;7.93;;;;;;;;;;5106025;28;20047;-50
2022/06/25 06:58:13;;;;;;;12.13;6.97;;;27.60;99.90;;;;;;5102397;28;20035;-51
2022/06/25 07:00:39;;;;;;;11.48;7.57;;;;;;;;;;5106118;28;20036;-50
2022/06/25 07:03:06;;;;;;;11.40;6.97;;;;;;;;;;5108968;28;20093;-51
2022/06/25 07:05:31;;;;;;;13.30;7.55;;;27.90;99.90;;;;;;5104672;28;20455;-51
2022/06/25 07:07:57;;;;;;;11.38;7.10;;;28.10;99.90;;;;;;5070488;28;20073;-53
2022/06/25 07:10:23;;;;;;;13.57;7.35;;;28.00;99.90;;;;;;5104093;28;20028;-50
2022/06/25 07:12:49;;;;;;;12.60;6.15;;;28.00;99.90;;;;;;5103853;28;20047;-54
2022/06/25 07:15:14;;;;;;;13.38;7.05;;;28.10;99.90;;;;;;5097797;28;20035;-50
2022/06/25 07:17:41;;;;;;;17.73;7.00;;;28.20;99.90;;;;;;5103407;28;20459;-51
2022/06/25 07:20:07;;;;;;;15.82;6.50;;;28.20;99.90;;;;;;5105697;28;20065;-52
2022/06/25 07:22:33;;;;;;;12.32;6.65;;;28.40;99.90;;;;;;5078986;28;20387;-51
2022/06/25 07:24:59;;;;;;;14.52;7.95;;;;;;;;;;5104531;28;20476;-52
2022/06/25 07:27:25;;;;;;;15.07;6.70;;;28.80;99.90;;;;;;5108115;28;20035;-49
2022/06/25 07:29:51;;;;;;;14.15;6.32;;;;;;;;;;5078204;28;20509;-50
2022/06/25 07:32:18;;;;;;;12.02;7.60;;;;;;;;;;5071332;28;20035;-49
2022/06/25 07:34:44;;;;;;;13.20;6.88;;;;;;;;;;5050720;28;20036;-51
2022/06/25 07:37:10;;;;;;;13.60;7.20;;;;;;;;;;5087465;28;20044;-49
2022/06/25 07:39:36;;;;;;;16.42;6.88;;;;;;;;;;5107559;28;20047;-53
2022/06/25 07:42:02;;;;;;;12.63;6.82;;;;;;;;;;5102858;28;20402;-51
2022/06/25 07:44:28;;;;;;;14.07;6.55;;;;;;;;;;5103351;28;20035;-52
2022/06/25 07:46:54;;;;;;;15.75;7.20;;;;;;;;;;5101651;28;20085;-52
2022/06/25 07:49:21;;;;;;;14.55;6.90;;;;;;;;;;5100830;28;20055;-53
2022/06/25 07:52:03;;;;;;;18.65;7.63;;;;;;;;;;5087344;28;20051;-49
2022/06/25 07:54:29;;;;;;;14.90;6.70;;;;;;;;;;5103162;28;20036;-52
2022/06/25 07:56:56;;;;;;;16.33;7.55;;;;;;;;;;5103092;28;20038;-50
2022/06/25 07:59:22;;;;;;;12.30;6.65;;;;;;;;;;5098246;28;20093;-54
2022/06/25 08:01:49;;;;;;;16.38;6.50;;;;;;;;;;5080066;28;20046;-49
2022/06/25 08:04:15;;;;;;;15.75;6.72;;;;;;;;;;5101843;28;20031;-50
2022/06/25 08:06:41;;;;;;;14.40;6.65;;;;;;;;;;5102089;28;20077;-48
2022/06/25 08:09:10;;;;;;;13.65;6.22;;;;;;;;;;5104544;28;20027;-49
2022/06/25 08:11:37;;;;;;;14.25;6.65;;;31.00;99.90;;;;;;5108207;28;20047;-50
2022/06/25 08:14:03;;;;;;;12.93;6.53;;;31.00;99.90;;;;;;5098984;28;20036;-50
2022/06/25 08:16:30;;;;;;;13.13;6.28;;;;;;;;;;5107730;28;20027;-50
2022/06/25 08:18:56;;;;;;;14.98;6.15;;;;;;;;;;5083538;28;20055;-50
2022/06/25 08:21:22;;;;;;;15.25;6.38;;;;;;;;;;5100058;28;20073;-49
2022/06/25 08:23:48;;;;;;;10.88;5.95;;;;;;;;;;5102584;28;20028;-48
2022/06/25 08:26:15;;;;;;;13.15;5.68;;;31.40;99.90;;;;;;5101351;28;20402;-51
2022/06/25 08:28:41;;;;;;;11.85;5.88;;;;;;;;;;5102097;28;20047;-50
2022/06/25 08:31:07;;;;;;;12.82;5.13;;;31.60;99.90;;;;;;5097925;28;20028;-48
2022/06/25 08:33:33;;;;;;;12.00;5.10;;;31.60;99.90;;;;;;5067445;28;20344;-50
2022/06/25 08:35:59;;;;;;;12.60;6.30;;;;;;;;;;5099450;28;20036;-49
2022/06/25 08:38:25;;;;;;;12.63;6.03;;;;;;;;;;5097748;28;20032;-49
2022/06/25 08:40:59;;;;;;;14.30;5.57;;;;;;;;;;5108439;28;20039;-49
2022/06/25 08:43:25;;;;;;;18.25;6.38;;;;;;;;;;5099509;28;20139;-49
2022/06/25 08:45:51;;;;;;;12.10;6.00;;;;;;;;;;5103337;28;20023;-49
2022/06/25 08:48:24;;;;;;;10.68;5.43;;;32.30;99.90;;;;;;5099085;28;20074;-50
2022/06/25 08:50:51;;;;;;;10.02;5.18;;;32.40;99.90;;;;;;5101863;28;20056;-50
2022/06/25 08:53:18;;;;;;;13.57;6.10;;;32.40;99.90;;;;;;5107901;28;20111;-50
2022/06/25 08:55:45;;;;;;;9.48;5.82;;;32.50;99.90;;;;;;5108722;28;20032;-50
2022/06/25 08:58:12;;;;;;;13.07;5.93;;;32.80;99.90;;;;;;5105479;28;20039;-51
2022/06/25 09:00:43;;;;;;;18.10;5.80;;;33.00;99.90;;;;;;5104987;28;20040;-51
2022/06/25 09:03:09;;;;;;;11.80;5.38;;;33.30;99.90;;;;;;5104028;28;20027;-50
2022/06/25 09:05:37;;;;;;;8.82;5.28;;;33.30;99.90;;;;;;5049843;28;20391;-50
2022/06/25 09:08:05;;;;;;;9.88;5.35;;;33.30;99.90;;;;;;5083558;28;20032;-51
2022/06/25 09:10:31;;;;;;;10.18;6.07;;;33.40;99.90;;;;;;5058955;28;20045;-51
2022/06/25 09:13:00;;;;;;;14.05;5.68;;;33.60;99.90;;;;;;5085569;28;20017;-50
2022/06/25 09:15:34;;;;;;;11.35;5.55;;;33.40;99.90;;;;;;5069561;28;20036;-54
2022/06/25 09:18:26;;;;;;;9.73;5.88;;;33.80;99.90;;;;;;5031519;28;20036;-50
2022/06/25 09:21:02;;;;;;;11.25;5.80;;;33.40;99.90;;;;;;5086048;28;20071;-49
2022/06/25 09:23:30;;;;;;;16.25;5.07;;;33.60;99.90;;;;;;5078692;28;20028;-45
2022/06/25 09:26:03;;;;;;;10.88;4.60;;;34.10;99.90;;;;;;5047210;28;20045;-50
2022/06/25 09:28:34;;;;;;;15.23;4.30;;;34.20;99.90;;;;;;5078679;28;20056;-50
2022/06/25 09:31:02;;;;;;;17.15;5.82;;;34.20;99.90;;;;;;5084697;28;20066;-50
2022/06/25 09:33:32;;;;;;;12.27;4.90;;;34.30;99.90;;;;;;5079765;28;20043;-50
2022/06/25 09:35:59;;;;;;;11.38;4.40;;;34.10;98.80;;;;;;5088322;28;20032;-50
2022/06/25 09:38:25;;;;;;;10.63;3.72;;;34.30;97.70;;;;;;5086755;28;20043;-50
2022/06/25 09:40:59;;;;;;;15.48;4.90;;;34.20;96.30;;;;;;5102425;28;20083;-49
2022/06/25 09:43:36;;;;;;;12.32;3.83;;;34.30;94.60;;;;;;5098818;28;20375;-50
2022/06/25 09:46:06;;;;;;;11.13;3.10;;;34.80;99.90;;;;;;5107823;28;20100;-50
2022/06/25 09:48:34;;;;;;;6.60;3.63;;;34.90;93.80;;;;;;5105383;28;20031;-50
2022/06/25 09:51:09;;;;;;;13.77;4.15;;;34.70;94.40;;;;;;5102165;28;20028;-50
2022/06/25 09:53:56;;;;;;;16.00;4.80;;;34.90;95.20;;;;;;5102390;28;20027;-49
2022/06/25 09:56:30;;;;;;;14.23;5.20;;;34.90;94.30;;;;;;5102636;28;20464;-50
2022/06/25 09:58:57;;;;;;;10.15;4.35;;;35.10;94.40;;;;;;5069957;28;20399;-50
2022/06/25 10:01:28;;;;;;;10.50;3.40;;;34.80;92.30;;;;;;5103038;28;20436;-51
2022/06/25 10:03:55;;;;;;;8.70;3.42;;;34.80;91.50;;;;;;5085824;28;20123;-50
2022/06/25 10:06:22;;;;;;;9.07;3.97;;;34.80;92.40;;;;;;5104434;28;20035;-52
2022/06/25 10:09:06;;;;;;;15.27;4.53;;;34.80;92.70;;;;;;5100079;28;20056;-50
2022/06/25 10:11:34;;;;;;;12.40;4.85;;;34.90;92.80;;;;;;5103794;28;20031;-50
2022/06/25 10:14:00;;;;;;;14.00;4.85;;;35.00;92.60;;;;;;5100119;28;20023;-51
2022/06/25 10:16:29;;;;;;;12.93;4.50;;;34.90;92.20;;;;;;5104412;28;20543;-50
2022/06/25 10:18:55;;;;;;;11.13;4.18;;;34.90;92.40;;;;;;5079814;28;20078;-50
2022/06/25 10:21:22;;;;;;;10.18;3.53;;;34.70;93.30;;;;;;5104840;28;20063;-50
2022/06/25 10:23:54;;;;;;;13.30;4.68;;;34.30;92.40;;;;;;5099566;28;20031;-50
2022/06/25 10:26:21;;;;;;;13.13;3.92;;;34.30;92.80;;;;;;5105068;28;20028;-51
2022/06/25 10:28:47;;;;;;;9.52;3.88;;;34.20;92.10;;;;;;5104944;28;20051;-50
2022/06/25 10:31:15;;;;;;;10.07;3.47;;;34.40;92.10;;;;;;5105983;28;20442;-50
2022/06/25 10:34:04;;;;;;;15.00;4.13;;;34.30;92.50;;;;;;5101011;28;20028;-51
2022/06/25 10:36:40;;;;;;;6.93;3.58;;;34.40;91.90;;;;;;5101325;28;20491;-50
2022/06/25 10:39:26;;;;;;;12.85;4.40;;;34.60;92.60;;;;;;5077794;28;20498;-50
2022/06/25 10:45:04;;;;;;;8.65;4.63;;;35.50;93.10;;;;;;5101780;27;20093;-50
2022/06/25 10:47:43;;;;;;;10.23;4.55;;;34.90;93.20;;;;;;5100010;28;20098;-50
2022/06/25 10:50:36;;;;;;;9.77;4.50;;;34.30;93.10;;;;;;5105326;28;20122;-51
2022/06/25 10:53:10;;;;;;;14.02;5.53;;;34.10;93.30;;;;;;5062528;28;20040;-50
2022/06/25 10:55:47;;;;;;;20.40;9.60;;;34.00;92.90;;;;;;5072485;28;20053;-50
2022/06/25 10:58:15;;;;;;;13.15;6.70;;;34.10;93.40;;;;;;5101088;28;20023;-51
2022/06/25 11:00:59;;;;;;;14.63;6.35;;;34.60;93.70;;;;;;5105718;28;20036;-50
2022/06/25 11:03:28;;;;;;;9.98;5.28;;;34.90;93.50;;;;;;5107720;28;20034;-50
2022/06/25 11:05:59;;;;;;;13.95;3.97;;;34.80;93.40;;;;;;5106126;28;20028;-50
2022/06/25 11:08:35;;;;;;;10.52;5.07;;;34.90;92.40;;;;;;5106897;28;20107;-50
2022/06/25 11:11:01;;;;;;;9.52;4.30;;;35.20;93.30;;;;;;5104536;27;20028;-50
2022/06/25 11:13:27;;;;;;;7.45;3.92;;;35.80;93.40;;;;;;5104918;27;20030;-50
2022/06/25 11:15:53;;;;;;;10.50;4.53;;;35.80;92.80;;;;;;5104342;28;20020;-50
2022/06/25 11:18:19;;;;;;;10.80;4.53;;;35.00;91.90;;;;;;5102825;28;20375;-50
2022/06/25 11:20:46;;;;;;;8.88;4.85;;;35.00;92.80;;;;;;5104616;28;20435;-51
2022/06/25 11:23:16;;;;;;;10.23;4.53;;;35.10;92.80;;;;;;5034975;28;20038;-50
2022/06/25 11:28:48;;;;;;;10.95;4.55;;;35.60;93.30;;;;;;5108447;28;20086;-50
2022/06/25 11:31:14;;;;;;;13.45;4.35;;;35.70;93.00;;;;;;5106219;28;20027;-51
2022/06/25 11:33:40;;;;;;;10.45;4.55;;;35.90;92.80;;;;;;5105466;28;20028;-50
2022/06/25 11:36:10;;;;;;;9.82;3.85;;;36.10;91.90;;;;;;5106124;28;20035;-50
2022/06/25 11:38:37;;;;;;;20.13;5.57;;;36.00;91.60;;;;;;5094126;28;20032;-50
2022/06/25 11:41:03;;;;;;;9.30;4.38;;;36.50;92.60;;;;;;5088671;28;20036;-54
2022/06/25 11:43:30;;;;;;;8.75;4.25;;;36.40;92.30;;;;;;5105760;28;20039;-55
2022/06/25 11:45:59;;;;;;;8.93;4.38;;;36.10;93.20;;;;;;5070720;28;20535;-52
2022/06/25 11:48:29;;;;;;;11.35;4.38;;;35.60;93.60;;;;;;5070961;28;20081;-52
2022/06/25 11:51:03;;;;;;;11.07;4.30;;;35.70;93.10;;;;;;5066433;28;20043;-52
2022/06/25 11:53:29;;;;;;;8.82;4.15;;;36.00;93.10;;;;;;5070728;28;20106;-52
2022/06/25 11:55:59;;;;;;;13.10;4.13;;;35.90;92.70;;;;;;5071830;28;20044;-52
2022/06/25 11:58:26;;;;;;;11.23;4.50;;;35.20;93.00;;;;;;5070818;28;20028;-52
2022/06/25 12:00:56;;;;;;;10.27;4.15;;;35.00;99.90;;;;;;5069554;28;20871;-52
2022/06/25 12:03:43;;;;;;;10.85;4.45;;;34.80;99.90;;;;;;5067343;28;20021;-52
2022/06/25 12:06:10;;;;;;;13.63;4.28;;;33.90;99.90;;;;;;5050418;28;20171;-52
2022/06/25 12:08:36;;;;;;;9.48;4.38;;;;;;;;;;5050685;28;20041;-56
2022/06/25 12:11:02;;;;;;;11.60;4.25;;;33.00;99.90;;;;;;5049803;28;20130;-57
2022/06/25 12:13:29;;;;;;;10.18;4.05;;;;;;;;;;5052403;28;20581;-50
2022/06/25 12:15:58;;;;;;;10.45;4.18;;;;;;;;;;5053820;28;20417;-52
2022/06/25 12:18:34;;;;;;;15.30;4.63;;;;;;;;;;5053096;28;20131;-53
2022/06/25 12:21:01;;;;;;;15.77;4.85;;;32.40;99.90;;;;;;5073161;28;20381;-50
2022/06/25 12:23:27;;;;;;;18.73;5.53;;;32.30;97.80;;;;;;5075483;28;20468;-50
2022/06/25 12:25:52;;;;;;;17.23;5.13;;;32.10;99.90;;;;;;5015155;28;20044;-51
2022/06/25 12:28:39;;;;;;;8.95;4.40;;;31.60;99.90;;;;;;4997061;28;20500;-50
2022/06/25 12:31:15;;;;;;;14.88;4.90;;;31.30;99.90;;;;;;5077288;28;20400;-50
2022/06/25 12:33:49;;;;;;;16.13;6.00;;;31.20;99.90;;;;;;5078527;28;20479;-50
2022/06/25 12:36:19;;;;;;;14.07;5.40;;;30.90;99.90;;;;;;5083315;28;20111;-50
2022/06/25 12:38:45;;;;;;;12.23;4.57;;;31.10;99.90;;;;;;5103536;28;20027;-50
2022/06/25 12:41:11;;;;;;;8.30;4.78;;;31.60;99.90;;;;;;5102485;28;20500;-50
2022/06/25 12:43:47;;;;;;;10.23;5.20;;;;;;;;;;5099358;28;20024;-51
2022/06/25 12:46:17;;;;;;;11.27;5.07;;;33.10;99.90;;;;;;5074810;28;20036;-50
2022/06/25 12:48:43;;;;;;;13.70;5.07;;;33.60;99.90;;;;;;5104014;28;20110;-53
2022/06/25 12:51:10;;;;;;;17.35;5.20;;;;;;;;;;5100348;28;20123;-50
2022/06/25 12:53:36;;;;;;;13.30;4.95;;;34.40;99.90;;;;;;5098970;28;20106;-51
2022/06/25 12:56:03;;;;;;;15.05;4.93;;;34.90;99.90;;;;;;5100994;28;20023;-50
2022/06/25 12:58:36;;;;;;;15.52;4.75;;;35.00;99.90;;;;;;5103914;28;20028;-50
2022/06/25 13:01:18;;;;;;;11.02;4.53;;;34.80;99.90;;;;;;5069368;28;20039;-50
2022/06/25 13:03:44;;;;;;;14.57;4.57;;;34.10;98.50;;;;;;5101664;28;20024;-50
2022/06/25 13:06:10;;;;;;;11.15;4.63;;;34.00;97.30;;;;;;5100335;28;20028;-50
2022/06/25 13:08:35;;;;;;;13.00;4.65;;;34.10;97.70;;;;;;5101861;28;20031;-51
2022/06/25 13:11:01;;;;;;;11.43;4.43;;;34.00;96.60;;;;;;5101606;28;20509;-51
2022/06/25 13:13:27;;;;;;;10.95;4.53;;;33.80;96.10;;;;;;5085101;28;20087;-50
2022/06/25 13:15:53;;;;;;;9.52;4.38;;;33.80;95.50;;;;;;5081343;28;20044;-52